createdAt,value
2022-11-01T00:03:49.464Z,13.20
2022-11-01T00:07:53.064Z,13.17
2022-11-01T00:11:54.483Z,13.16
2022-11-01T00:15:55.795Z,13.15
2022-11-01T00:19:57.086Z,13.12
2022-11-01T00:23:58.383Z,13.11
2022-11-01T00:28:00.008Z,13.08
2022-11-01T00:36:24.266Z,13.09
2022-11-01T00:40:25.747Z,13.06
2022-11-01T00:44:27.107Z,13.01
2022-11-01T00:48:28.880Z,13.00
2022-11-01T00:52:30.143Z,13.00
2022-11-01T00:56:31.687Z,12.99
2022-11-01T01:00:32.959Z,13.00
2022-11-01T01:04:34.299Z,13.00
2022-11-01T01:08:35.547Z,12.97
2022-11-01T01:12:36.834Z,12.98
2022-11-01T01:16:38.173Z,12.98
2022-11-01T01:20:40.218Z,12.99
2022-11-01T01:24:45.639Z,13.02
2022-11-01T01:28:46.988Z,13.10
2022-11-01T01:32:48.467Z,13.14
2022-11-01T01:36:49.790Z,13.17
2022-11-01T01:40:51.171Z,13.19
2022-11-01T01:44:55.823Z,13.22
2022-11-01T01:48:58.339Z,13.26
2022-11-01T01:53:05.797Z,13.36
2022-11-01T01:57:07.832Z,13.52
2022-11-01T02:01:09.821Z,13.72
2022-11-01T02:05:19.493Z,13.90
2022-11-01T02:09:21.011Z,14.03
2022-11-01T02:13:23.425Z,14.12
2022-11-01T02:17:30.776Z,14.19
2022-11-01T02:21:43.310Z,14.26
2022-11-01T02:25:59.757Z,14.30
2022-11-01T02:30:16.624Z,14.35
2022-11-01T02:34:24.293Z,14.38
2022-11-01T02:38:33.785Z,14.40
2022-11-01T02:42:49.989Z,14.42
2022-11-01T02:47:01.239Z,14.42
2022-11-01T02:51:02.657Z,14.46
2022-11-01T02:55:26.984Z,14.48
2022-11-01T02:59:29.571Z,14.50
2022-11-01T03:03:32.691Z,14.50
2022-11-01T03:07:34.614Z,14.52
2022-11-01T03:11:42.174Z,14.56
2022-11-01T03:15:51.205Z,14.56
2022-11-01T03:19:58.840Z,14.56
2022-11-01T03:24:09.281Z,14.56
2022-11-01T03:28:20.793Z,14.56
2022-11-01T03:32:23.984Z,14.58
2022-11-01T03:36:27.772Z,14.59
2022-11-01T03:40:30.325Z,14.60
2022-11-01T03:44:38.369Z,14.61
2022-11-01T03:48:40.448Z,14.62
2022-11-01T03:52:41.956Z,14.64
2022-11-01T03:56:43.451Z,14.66
2022-11-01T04:00:45.617Z,14.67
2022-11-01T04:04:47.867Z,14.70
2022-11-01T04:08:49.126Z,14.69
2022-11-01T04:12:50.880Z,14.67
2022-11-01T04:17:12.100Z,14.65
2022-11-01T04:21:15.124Z,14.67
2022-11-01T04:25:16.469Z,14.67
2022-11-01T04:29:17.828Z,14.66
2022-11-01T04:33:19.087Z,14.62
2022-11-01T04:37:20.424Z,14.61
2022-11-01T04:41:22.779Z,14.61
2022-11-01T04:45:25.010Z,14.59
2022-11-01T04:49:26.283Z,14.57
2022-11-01T04:53:27.706Z,14.56
2022-11-01T04:57:28.979Z,14.52
2022-11-01T05:01:31.044Z,14.53
2022-11-01T05:05:32.450Z,14.53
2022-11-01T05:09:33.777Z,14.51
2022-11-01T05:13:35.924Z,14.52
2022-11-01T05:17:41.084Z,14.51
2022-11-01T05:21:42.382Z,14.49
2022-11-01T05:25:43.725Z,14.50
2022-11-01T05:29:45.007Z,14.51
2022-11-01T05:33:46.827Z,14.53
2022-11-01T05:37:48.164Z,14.56
2022-11-01T05:41:49.485Z,14.57
2022-11-01T05:45:51.214Z,14.59
2022-11-01T05:49:52.927Z,14.61
2022-11-01T05:53:54.152Z,14.65
2022-11-01T05:57:59.091Z,14.66
2022-11-01T06:02:00.436Z,14.67
2022-11-01T06:06:02.615Z,14.70
2022-11-01T06:10:05.086Z,14.69
2022-11-01T06:14:06.855Z,14.70
2022-11-01T06:18:08.361Z,14.72
2022-11-01T06:22:09.881Z,14.70
2022-11-01T06:26:11.303Z,14.72
2022-11-01T06:30:12.649Z,14.72
2022-11-01T06:34:14.041Z,14.68
2022-11-01T06:38:15.474Z,14.66
2022-11-01T06:42:16.898Z,14.62
2022-11-01T06:46:18.623Z,14.59
2022-11-01T06:50:19.866Z,14.55
2022-11-01T06:54:21.131Z,14.53
2022-11-01T06:58:22.379Z,14.50
2022-11-01T07:02:29.675Z,14.40
2022-11-01T07:06:31.375Z,14.28
2022-11-01T07:10:32.698Z,14.15
2022-11-01T07:14:33.976Z,14.00
2022-11-01T07:18:35.638Z,13.84
2022-11-01T07:22:36.962Z,13.71
2022-11-01T07:26:38.820Z,13.56
2022-11-01T07:30:40.056Z,13.41
2022-11-01T07:34:41.713Z,13.34
2022-11-01T07:38:43.023Z,13.25
2022-11-01T07:42:45.140Z,13.17
2022-11-01T07:46:46.378Z,13.01
2022-11-01T07:50:47.921Z,12.91
2022-11-01T07:54:49.219Z,12.91
2022-11-01T07:58:50.530Z,12.88
2022-11-01T08:02:51.895Z,12.91
2022-11-01T08:06:53.516Z,12.93
2022-11-01T08:10:54.940Z,13.02
2022-11-01T08:14:56.398Z,13.18
2022-11-01T08:18:57.679Z,13.34
2022-11-01T08:22:59.528Z,13.46
2022-11-01T08:27:03.282Z,13.53
2022-11-01T08:31:08.643Z,13.71
2022-11-01T08:35:11.927Z,13.85
2022-11-01T08:39:13.356Z,13.94
2022-11-01T08:43:14.690Z,14.27
2022-11-01T08:47:16.006Z,14.54
2022-11-01T08:51:24.287Z,14.88
2022-11-01T08:55:25.927Z,14.93
2022-11-01T08:59:28.402Z,14.88
2022-11-01T09:03:29.651Z,14.86
2022-11-01T09:07:30.922Z,15.15
2022-11-01T09:11:36.313Z,15.23
2022-11-01T09:15:37.730Z,15.27
2022-11-01T09:19:40.165Z,15.26
2022-11-01T09:23:41.748Z,15.36
2022-11-01T09:27:43.812Z,15.55
2022-11-01T09:31:45.099Z,15.40
2022-11-01T09:35:54.125Z,15.47
2022-11-01T09:39:58.278Z,15.55
2022-11-01T09:44:02.195Z,15.40
2022-11-01T09:48:05.702Z,15.24
2022-11-01T09:52:07.525Z,15.20
2022-11-01T09:56:18.879Z,15.35
2022-11-01T10:00:20.285Z,15.26
2022-11-01T10:04:24.511Z,15.27
2022-11-01T10:08:37.471Z,15.32
2022-11-01T10:12:41.788Z,15.44
2022-11-01T10:16:51.969Z,15.48
2022-11-01T10:20:55.099Z,15.24
2022-11-01T10:25:04.413Z,15.13
2022-11-01T10:29:15.718Z,15.11
2022-11-01T10:33:22.546Z,15.19
2022-11-01T10:37:26.723Z,15.30
2022-11-01T10:41:36.929Z,15.27
2022-11-01T10:45:41.242Z,15.23
2022-11-01T10:50:12.130Z,15.32
2022-11-01T10:54:17.719Z,15.24
2022-11-01T10:58:23.803Z,15.17
2022-11-01T11:02:45.292Z,15.13
2022-11-01T11:06:46.582Z,15.14
2022-11-01T11:10:48.468Z,15.24
2022-11-01T11:14:53.155Z,15.28
2022-11-01T11:19:02.124Z,15.35
2022-11-01T11:23:04.068Z,15.42
2022-11-01T11:27:17.642Z,15.54
2022-11-01T11:31:27.111Z,15.43
2022-11-01T11:35:30.062Z,15.40
2022-11-01T11:39:32.938Z,15.50
2022-11-01T11:43:37.848Z,15.57
2022-11-01T11:47:39.563Z,15.55
2022-11-01T11:51:42.092Z,15.60
2022-11-01T11:55:47.417Z,15.52
2022-11-01T11:59:51.168Z,15.56
2022-11-01T12:03:52.866Z,15.61
2022-11-01T12:07:55.030Z,15.58
2022-11-01T12:11:56.407Z,15.71
2022-11-01T12:16:06.619Z,15.74
2022-11-01T12:20:16.078Z,15.82
2022-11-01T12:24:26.828Z,15.88
2022-11-01T12:28:31.961Z,15.71
2022-11-01T12:32:39.136Z,15.67
2022-11-01T12:36:48.269Z,15.56
2022-11-01T12:40:52.291Z,15.55
2022-11-01T12:44:57.205Z,15.61
2022-11-01T12:49:21.812Z,15.61
2022-11-01T12:53:26.719Z,15.57
2022-11-01T12:57:28.137Z,15.65
2022-11-01T13:01:57.987Z,15.64
2022-11-01T13:06:45.473Z,15.62
2022-11-01T14:04:19.138Z,15.24
2022-11-01T14:08:56.474Z,15.18
2022-11-01T14:17:39.519Z,15.17
2022-11-01T14:21:54.409Z,15.13
2022-11-01T14:26:54.460Z,15.08
2022-11-01T14:31:05.340Z,15.03
2022-11-01T14:35:22.300Z,14.97
2022-11-01T14:39:57.063Z,14.94
2022-11-01T14:48:47.867Z,14.81
2022-11-01T14:53:24.845Z,14.76
2022-11-01T14:57:58.670Z,14.70
2022-11-01T15:03:08.191Z,14.59
2022-11-01T15:07:53.668Z,14.50
2022-11-01T15:12:49.280Z,14.39
2022-11-01T15:17:01.191Z,14.28
2022-11-01T15:22:01.053Z,14.17
2022-11-01T15:26:31.433Z,13.96
2022-11-01T15:30:42.848Z,13.85
2022-11-01T15:39:44.534Z,13.63
2022-11-01T15:44:05.541Z,13.54
2022-11-01T15:48:20.925Z,13.37
2022-11-01T15:52:49.839Z,13.23
2022-11-01T16:02:07.659Z,12.93
2022-11-01T16:12:06.878Z,12.54
2022-11-01T16:16:13.064Z,12.29
2022-11-01T16:20:30.782Z,12.06
2022-11-01T16:24:34.535Z,11.85
2022-11-01T16:28:41.837Z,11.66
2022-11-01T16:32:43.332Z,11.50
2022-11-01T16:36:45.432Z,11.32
2022-11-01T16:40:47.534Z,11.21
2022-11-01T16:44:50.153Z,11.09
2022-11-01T16:48:58.649Z,10.99
2022-11-01T16:53:00.565Z,10.76
2022-11-01T16:57:02.640Z,10.61
2022-11-01T17:01:04.192Z,10.50
2022-11-01T17:05:19.374Z,10.39
2022-11-01T17:09:23.025Z,10.31
2022-11-01T17:13:24.578Z,10.23
2022-11-01T17:17:28.499Z,10.14
2022-11-01T17:21:31.460Z,10.05
2022-11-01T17:25:33.245Z,9.94
2022-11-01T17:29:34.965Z,9.85
2022-11-01T17:33:38.706Z,9.76
2022-11-01T17:37:40.205Z,9.66
2022-11-01T17:41:41.662Z,9.53
2022-11-01T17:45:47.840Z,9.46
2022-11-01T17:49:50.644Z,9.43
2022-11-01T17:53:52.693Z,9.32
2022-11-01T17:57:55.703Z,9.28
2022-11-01T18:01:57.290Z,9.20
2022-11-01T18:06:02.938Z,9.11
2022-11-01T18:10:13.599Z,9.02
2022-11-01T18:14:19.499Z,8.93
2022-11-01T18:18:22.283Z,8.80
2022-11-01T18:22:41.500Z,8.72
2022-11-01T18:26:44.631Z,8.68
2022-11-01T18:30:52.648Z,8.61
2022-11-01T18:35:00.047Z,8.55
2022-11-01T18:39:02.114Z,8.43
2022-11-01T18:43:07.188Z,8.35
2022-11-01T18:47:19.239Z,8.28
2022-11-01T18:51:26.499Z,8.21
2022-11-01T18:55:29.004Z,8.18
2022-11-01T18:59:32.181Z,8.09
2022-11-01T19:03:49.529Z,8.05
2022-11-01T19:08:17.018Z,8.02
2022-11-01T19:12:29.773Z,7.99
2022-11-01T19:16:31.516Z,7.89
2022-11-01T19:20:35.914Z,7.83
2022-11-01T19:24:38.183Z,7.79
2022-11-01T19:28:41.145Z,7.74
2022-11-01T19:43:39.039Z,7.56
2022-11-01T19:48:34.758Z,7.50
2022-11-01T19:54:05.024Z,7.49
2022-11-01T19:58:39.190Z,7.46
2022-11-01T20:03:03.610Z,7.42
2022-11-01T20:07:19.949Z,7.39
2022-11-01T20:11:25.300Z,7.38
2022-11-01T20:30:09.073Z,7.51
2022-11-01T20:34:10.409Z,7.47
2022-11-01T20:38:14.609Z,7.49
2022-11-01T20:42:16.019Z,7.66
2022-11-01T20:46:17.387Z,7.69
2022-11-01T20:50:18.967Z,7.75
2022-11-01T20:58:44.854Z,7.93
2022-11-01T21:02:54.833Z,7.95
2022-11-01T21:07:03.229Z,7.96
2022-11-01T21:11:23.171Z,7.96
2022-11-01T21:15:28.344Z,7.97
2022-11-01T21:19:30.263Z,7.97
2022-11-01T21:23:35.469Z,7.96
2022-11-01T21:27:37.693Z,7.98
2022-11-01T21:31:39.106Z,8.01
2022-11-01T21:35:41.585Z,8.00
2022-11-01T21:39:49.728Z,8.03
2022-11-01T21:43:51.568Z,8.03
2022-11-01T21:47:54.211Z,8.03
2022-11-01T21:51:57.707Z,8.04
2022-11-01T21:55:59.108Z,7.99
2022-11-01T22:00:01.112Z,7.93
2022-11-01T22:04:10.184Z,7.88
2022-11-01T22:08:14.379Z,7.87
2022-11-01T22:12:15.666Z,7.78
2022-11-01T22:16:17.275Z,7.73
2022-11-01T22:20:18.586Z,7.64
2022-11-01T22:24:20.541Z,7.55
2022-11-01T22:28:21.774Z,7.51
2022-11-01T22:32:24.654Z,7.45
2022-11-01T22:36:27.385Z,7.43
2022-11-01T22:40:28.777Z,7.39
2022-11-01T22:44:31.361Z,7.34
2022-11-01T22:48:33.180Z,7.34
2022-11-01T22:52:39.047Z,7.36
2022-11-01T22:56:40.337Z,7.35
2022-11-01T23:00:45.620Z,7.36
2022-11-01T23:04:47.264Z,7.38
2022-11-01T23:08:48.531Z,7.32
2022-11-01T23:13:10.961Z,7.30
2022-11-01T23:17:21.039Z,7.23
2022-11-01T23:21:22.510Z,7.23
2022-11-01T23:25:25.065Z,7.21
2022-11-01T23:29:26.354Z,7.18
2022-11-01T23:33:33.863Z,7.21
2022-11-01T23:37:35.454Z,7.22
2022-11-01T23:41:38.324Z,7.31
2022-11-01T23:45:39.636Z,7.45
2022-11-01T23:49:41.243Z,7.49
2022-11-01T23:53:44.356Z,7.54
2022-11-01T23:57:45.708Z,7.63
